Time;durP1;ratioP1;P1;durP2;ratioP2;P2;SDS_P1;SDS_P2;PMS_P1;PMS_P2;Temp;Humidity;BMP_temperature;BMP_pressure;BME280_temperature;BME280_humidity;BME280_pressure;Samples;Min_cycle;Max_cycle;Signal;HPM_P1;HPM_P2
2024/01/08 05:02:26;;;;;;;1.57;1.47;;;-7.00;97.30;;;;;;5164563;23;20546;-89
2024/01/08 05:04:51;;;;;;;1.40;1.30;;;-7.00;97.30;;;;;;4973364;28;20434;-89
2024/01/08 05:07:17;;;;;;;1.20;1.10;;;-7.00;97.30;;;;;;4972260;28;20208;-88
2024/01/08 05:09:42;;;;;;;4.93;2.83;;;-7.00;97.30;;;;;;4972871;28;20197;-90
2024/01/08 05:12:08;;;;;;;1.10;1.00;;;-6.90;97.30;;;;;;4998798;28;20234;-89
2024/01/08 05:14:33;;;;;;;1.70;1.60;;;-6.90;97.30;;;;;;4972798;28;20196;-89
2024/01/08 05:16:59;;;;;;;2.00;1.90;;;-6.80;97.30;;;;;;4972115;28;20209;-88
2024/01/08 05:19:24;;;;;;;1.43;1.33;;;-6.80;97.30;;;;;;4976652;28;20256;-91
2024/01/08 05:21:50;;;;;;;1.40;1.30;;;-6.80;97.30;;;;;;4968544;28;20215;-91
2024/01/08 05:24:16;;;;;;;1.40;1.30;;;-6.90;97.30;;;;;;4973670;28;20190;-89
2024/01/08 05:26:44;;;;;;;4.97;3.10;;;-6.90;97.30;;;;;;4972542;28;20205;-89
2024/01/08 05:29:10;;;;;;;17.43;2.63;;;-6.90;97.30;;;;;;4976107;28;20173;-89
2024/01/08 05:31:35;;;;;;;1.27;1.17;;;-6.80;97.30;;;;;;4967409;28;20429;-87
2024/01/08 05:34:01;;;;;;;1.20;1.10;;;-6.80;97.30;;;;;;4970391;28;20222;-88
2024/01/08 05:36:26;;;;;;;1.47;1.37;;;-6.80;97.30;;;;;;4971286;28;20256;-90
2024/01/08 05:38:52;;;;;;;2.63;2.43;;;-6.80;97.30;;;;;;4973046;28;20182;-90
2024/01/08 05:41:20;;;;;;;2.57;2.37;;;-6.80;97.30;;;;;;4976056;28;20214;-91
2024/01/08 05:43:46;;;;;;;9.93;4.03;;;-6.80;97.30;;;;;;4969785;28;20188;-87
2024/01/08 05:46:11;;;;;;;1.50;1.40;;;-6.80;97.30;;;;;;4969115;28;20474;-89
2024/01/08 05:48:37;;;;;;;1.20;1.10;;;-6.90;97.30;;;;;;4968633;28;20192;-90
2024/01/08 05:51:09;;;;;;;1.57;1.47;;;-6.90;97.30;;;;;;4972985;28;20206;-90
2024/01/08 05:53:35;;;;;;;1.80;1.70;;;-6.90;97.30;;;;;;4963362;28;20651;-87
2024/01/08 05:56:01;;;;;;;1.70;1.60;;;-6.90;97.30;;;;;;4955237;28;20426;-87
2024/01/08 05:58:26;;;;;;;1.70;1.60;;;-7.00;97.30;;;;;;4957054;28;20200;-87
2024/01/08 06:00:53;;;;;;;1.80;1.70;;;-7.00;97.30;;;;;;4959785;28;20236;-87
2024/01/08 06:03:20;;;;;;;1.30;1.20;;;-6.90;97.30;;;;;;4958334;28;20186;-88
2024/01/08 06:05:45;;;;;;;1.50;1.40;;;-6.90;97.30;;;;;;4951410;28;20463;-86
2024/01/08 06:08:12;;;;;;;1.30;1.20;;;-6.90;97.30;;;;;;4944258;28;20451;-87
2024/01/08 06:10:38;;;;;;;7.23;3.40;;;-6.90;97.30;;;;;;4950810;28;20917;-87
2024/01/08 06:13:05;;;;;;;1.17;1.07;;;-6.90;97.30;;;;;;4936335;29;20191;-87
2024/01/08 06:15:31;;;;;;;2.87;2.03;;;-6.90;97.30;;;;;;4975654;28;20436;-86
2024/01/08 06:17:56;;;;;;;4.13;2.00;;;-6.80;97.30;;;;;;4945543;28;20434;-87
2024/01/08 06:20:22;;;;;;;1.37;1.27;;;-6.80;97.30;;;;;;4944810;28;20187;-86
2024/01/08 06:22:47;;;;;;;1.70;1.60;;;-6.80;97.30;;;;;;4938813;28;20194;-89
2024/01/08 06:25:13;;;;;;;1.30;1.20;;;-6.80;97.30;;;;;;4958434;28;20258;-88
2024/01/08 06:27:38;;;;;;;1.50;1.40;;;-6.80;97.30;;;;;;4950052;28;20224;-86
2024/01/08 06:30:04;;;;;;;2.13;1.97;;;-6.80;97.30;;;;;;4947705;28;20179;-87
2024/01/08 06:32:30;;;;;;;1.30;1.20;;;-6.80;97.30;;;;;;4973480;28;20736;-87
2024/01/08 06:34:56;;;;;;;1.50;1.40;;;;;;;;;;4952351;28;20536;-86
2024/01/08 06:37:21;;;;;;;1.50;1.40;;;-6.90;97.30;;;;;;4953704;28;20200;-86
2024/01/08 06:39:47;;;;;;;1.20;1.10;;;-6.90;97.30;;;;;;4972807;28;20456;-88
2024/01/08 06:42:12;;;;;;;1.40;1.30;;;-6.90;97.30;;;;;;4977641;28;20273;-86
2024/01/08 06:44:38;;;;;;;1.50;1.40;;;-7.00;97.30;;;;;;4972705;28;20183;-87
2024/01/08 06:47:04;;;;;;;1.30;1.20;;;-7.00;97.30;;;;;;4956813;28;20182;-87
2024/01/08 06:49:29;;;;;;;7.50;2.70;;;-7.00;97.30;;;;;;4975155;28;20665;-86
2024/01/08 06:51:55;;;;;;;1.87;1.77;;;-7.00;97.30;;;;;;4945692;28;20457;-88
2024/01/08 06:54:20;;;;;;;3.33;1.70;;;-7.00;97.30;;;;;;4947790;28;20205;-88
2024/01/08 06:56:46;;;;;;;1.40;1.30;;;-7.10;97.30;;;;;;4951810;28;20197;-89
2024/01/08 06:59:11;;;;;;;1.60;1.50;;;-7.10;97.30;;;;;;4973664;28;20185;-87
2024/01/08 07:01:37;;;;;;;1.40;1.30;;;-7.10;97.30;;;;;;4961307;28;20512;-83
2024/01/08 07:04:03;;;;;;;2.23;2.03;;;-7.20;97.30;;;;;;4957154;28;20351;-87
2024/01/08 07:06:28;;;;;;;1.40;1.30;;;-7.20;97.30;;;;;;4948045;28;20261;-88
2024/01/08 07:08:54;;;;;;;1.40;1.30;;;-7.20;97.30;;;;;;4955267;28;20687;-87
2024/01/08 07:11:23;;;;;;;2.17;2.03;;;-7.20;97.30;;;;;;4972195;28;20632;-85
2024/01/08 07:13:49;;;;;;;1.40;1.30;;;-7.20;97.30;;;;;;4951585;28;20190;-87
2024/01/08 07:16:16;;;;;;;2.67;2.50;;;-7.20;97.30;;;;;;4954565;28;20437;-87
2024/01/08 07:18:42;;;;;;;1.20;1.10;;;-7.20;97.30;;;;;;4953197;28;20245;-85
2024/01/08 07:21:07;;;;;;;3.67;2.10;;;-7.30;97.30;;;;;;4957827;28;20456;-88
2024/01/08 07:23:35;;;;;;;1.20;1.10;;;-7.20;97.30;;;;;;4951363;28;20525;-86
2024/01/08 07:26:00;;;;;;;5.33;2.57;;;-7.20;97.30;;;;;;4949220;28;20207;-87
2024/01/08 07:28:28;;;;;;;4.10;2.60;;;-7.20;97.30;;;;;;4957818;28;20994;-87
2024/01/08 07:30:54;;;;;;;1.20;1.10;;;-7.20;97.30;;;;;;4955829;28;20273;-86
2024/01/08 07:33:19;;;;;;;1.93;1.83;;;-7.20;97.30;;;;;;4953948;28;20525;-85
2024/01/08 07:35:45;;;;;;;1.57;1.47;;;-7.10;97.30;;;;;;4962819;28;20194;-89
2024/01/08 07:38:10;;;;;;;1.20;1.10;;;-7.10;97.30;;;;;;4948746;28;20278;-88
2024/01/08 07:40:36;;;;;;;1.43;1.33;;;-7.10;97.30;;;;;;4973821;28;20186;-88
2024/01/08 07:43:02;;;;;;;1.70;1.60;;;-7.20;97.30;;;;;;4951091;28;20266;-88
2024/01/08 07:45:27;;;;;;;1.50;1.40;;;-7.20;97.30;;;;;;4955253;28;20202;-87
2024/01/08 07:47:54;;;;;;;1.37;1.27;;;-7.20;97.30;;;;;;4951108;28;20205;-87
2024/01/08 07:50:20;;;;;;;1.40;1.30;;;-7.20;97.30;;;;;;4952586;28;20182;-87
2024/01/08 07:52:46;;;;;;;3.37;3.17;;;-7.20;97.30;;;;;;4958714;28;20418;-88
2024/01/08 07:55:11;;;;;;;1.27;1.17;;;-7.20;97.30;;;;;;4962898;28;20238;-85
2024/01/08 07:57:37;;;;;;;1.30;1.20;;;-7.20;97.30;;;;;;4956880;28;20472;-86
2024/01/08 08:00:11;;;;;;;1.30;1.20;;;-7.20;97.30;;;;;;4943900;28;20194;-87
2024/01/08 08:02:38;;;;;;;1.50;1.40;;;-7.20;97.30;;;;;;4953275;28;20237;-82
2024/01/08 08:05:04;;;;;;;1.20;1.10;;;-7.20;97.30;;;;;;4959929;28;20519;-83
2024/01/08 08:07:29;;;;;;;1.30;1.20;;;-7.20;97.30;;;;;;4953406;28;20956;-89
2024/01/08 08:09:55;;;;;;;1.53;1.43;;;-7.20;97.30;;;;;;4949139;28;20641;-88
2024/01/08 08:12:21;;;;;;;2.50;2.13;;;-7.20;97.30;;;;;;4955793;28;20213;-87
2024/01/08 08:14:49;;;;;;;1.20;1.10;;;-7.30;97.30;;;;;;4977483;28;20194;-88
2024/01/08 08:17:15;;;;;;;3.60;2.20;;;-7.30;97.30;;;;;;4948476;28;20186;-84
2024/01/08 08:19:45;;;;;;;1.30;1.20;;;-7.30;97.30;;;;;;4955133;28;20425;-89
2024/01/08 08:22:11;;;;;;;2.40;1.97;;;-7.30;97.30;;;;;;4946841;28;20447;-88
2024/01/08 08:24:41;;;;;;;8.03;2.03;;;-7.30;97.30;;;;;;4966023;28;20442;-84
2024/01/08 08:27:12;;;;;;;1.30;1.20;;;-7.40;97.30;;;;;;4949770;28;20469;-88
2024/01/08 08:29:39;;;;;;;2.67;2.47;;;-7.40;97.30;;;;;;4950187;28;20489;-88
2024/01/08 08:32:05;;;;;;;1.60;1.50;;;-7.40;97.30;;;;;;4970590;28;20476;-86
2024/01/08 08:34:31;;;;;;;2.27;2.07;;;-7.30;97.30;;;;;;4971114;28;20427;-87
2024/01/08 08:36:56;;;;;;;1.60;1.50;;;-7.30;97.30;;;;;;4968116;28;20433;-87
2024/01/08 08:39:22;;;;;;;1.97;1.87;;;-7.40;97.30;;;;;;4965308;28;20928;-88
2024/01/08 08:41:48;;;;;;;1.70;1.50;;;-7.30;97.30;;;;;;4967284;28;20310;-87
2024/01/08 08:44:14;;;;;;;1.50;1.40;;;-7.30;97.30;;;;;;4954992;28;20929;-87
2024/01/08 08:46:39;;;;;;;1.13;1.03;;;-7.30;97.30;;;;;;4956826;28;20213;-86
2024/01/08 08:49:06;;;;;;;3.73;2.17;;;-7.30;97.30;;;;;;4954916;28;20418;-86
2024/01/08 08:51:33;;;;;;;1.70;1.60;;;-7.40;97.30;;;;;;4952325;28;20206;-85
2024/01/08 08:54:01;;;;;;;1.83;1.73;;;-7.50;97.30;;;;;;4949758;28;20418;-87
2024/01/08 08:56:26;;;;;;;3.10;2.90;;;-7.50;97.30;;;;;;4973232;28;20873;-83
2024/01/08 08:58:52;;;;;;;1.20;1.10;;;-7.60;97.30;;;;;;4970167;28;20418;-86
2024/01/08 09:01:18;;;;;;;1.47;1.37;;;-7.60;97.30;;;;;;4972849;28;20235;-83
2024/01/08 09:03:44;;;;;;;1.67;1.57;;;-7.60;97.30;;;;;;4952958;28;20662;-82
2024/01/08 09:06:09;;;;;;;1.70;1.60;;;-7.60;97.30;;;;;;4965478;28;20213;-87
2024/01/08 09:08:35;;;;;;;1.63;1.53;;;-7.60;97.30;;;;;;4961226;28;20187;-85
2024/01/08 09:11:00;;;;;;;4.30;1.30;;;-7.60;97.30;;;;;;4962281;28;20213;-87
2024/01/08 09:13:26;;;;;;;1.20;1.10;;;-7.70;97.30;;;;;;4957306;28;20189;-87
2024/01/08 09:15:51;;;;;;;1.90;1.80;;;-7.80;97.30;;;;;;4972090;28;20186;-86
2024/01/08 09:18:18;;;;;;;2.33;2.13;;;-7.80;97.30;;;;;;4972590;28;20221;-82
2024/01/08 09:20:43;;;;;;;5.03;4.07;;;-7.90;97.30;;;;;;4970981;28;20213;-82
2024/01/08 09:23:09;;;;;;;3.43;3.23;;;-7.90;97.30;;;;;;4957324;28;20431;-84
2024/01/08 09:25:34;;;;;;;1.20;1.10;;;-7.90;97.30;;;;;;4970106;28;20225;-86
2024/01/08 09:28:00;;;;;;;1.30;1.20;;;-7.90;97.30;;;;;;4956853;28;20216;-87
2024/01/08 09:30:25;;;;;;;1.40;1.30;;;-7.90;97.30;;;;;;4953278;28;20686;-85
2024/01/08 09:32:51;;;;;;;1.40;1.30;;;-7.80;97.30;;;;;;4951484;28;20204;-87
2024/01/08 09:35:16;;;;;;;2.43;2.23;;;-7.70;97.30;;;;;;4953382;28;20207;-87
2024/01/08 09:37:42;;;;;;;1.20;1.10;;;-7.70;97.30;;;;;;4956473;28;20181;-86
2024/01/08 09:40:10;;;;;;;2.60;2.23;;;-7.60;97.30;;;;;;4966350;28;20177;-88
2024/01/08 09:42:36;;;;;;;1.20;1.10;;;-7.60;97.30;;;;;;4948972;28;20681;-87
2024/01/08 09:45:03;;;;;;;1.20;1.10;;;-7.50;97.30;;;;;;4963014;28;20791;-87
2024/01/08 09:47:30;;;;;;;1.47;1.37;;;-7.50;97.30;;;;;;4963999;28;20510;-87
2024/01/08 09:49:57;;;;;;;1.13;1.03;;;-7.50;97.30;;;;;;4965597;28;20442;-88
2024/01/08 09:52:23;;;;;;;1.40;1.30;;;-7.50;97.30;;;;;;4962938;28;20465;-88
2024/01/08 09:54:49;;;;;;;1.80;1.70;;;-7.40;97.30;;;;;;4952836;28;20823;-87
2024/01/08 09:57:15;;;;;;;2.70;2.50;;;-7.30;97.30;;;;;;4969246;28;20273;-87
2024/01/08 09:59:40;;;;;;;1.53;1.43;;;-7.30;97.30;;;;;;4951979;28;20465;-87
2024/01/08 10:02:15;;;;;;;1.43;1.33;;;-7.20;97.30;;;;;;4950046;28;20232;-86
2024/01/08 10:04:40;;;;;;;1.20;1.10;;;-7.10;97.10;;;;;;4954618;28;20192;-87
2024/01/08 10:07:08;;;;;;;1.87;1.77;;;-7.10;96.90;;;;;;4955568;28;20469;-87
2024/01/08 10:09:33;;;;;;;1.30;1.20;;;-7.10;96.80;;;;;;4961643;28;20332;-86
2024/01/08 10:11:59;;;;;;;2.80;2.10;;;-7.10;96.50;;;;;;4956770;28;20473;-86
2024/01/08 10:14:25;;;;;;;2.40;1.30;;;-7.00;96.70;;;;;;4970827;28;20609;-85
2024/01/08 10:16:53;;;;;;;2.13;1.97;;;-6.90;97.00;;;;;;4966842;28;20185;-85
2024/01/08 10:19:18;;;;;;;1.30;1.20;;;-6.70;96.60;;;;;;4961614;28;20450;-86
2024/01/08 10:21:47;;;;;;;1.20;1.10;;;-6.60;96.80;;;;;;4964540;28;20444;-87
2024/01/08 10:24:13;;;;;;;2.00;1.43;;;-6.50;96.40;;;;;;4963644;28;20434;-86
2024/01/08 10:26:41;;;;;;;5.03;1.63;;;-6.40;96.20;;;;;;4970652;28;20557;-85
2024/01/08 10:29:11;;;;;;;2.43;2.23;;;-6.30;96.20;;;;;;4970995;28;20956;-87
2024/01/08 10:31:37;;;;;;;3.27;2.03;;;-6.30;95.50;;;;;;4954442;28;20445;-86
2024/01/08 10:34:06;;;;;;;2.53;2.33;;;-6.20;95.10;;;;;;4970360;28;20426;-87
2024/01/08 10:36:33;;;;;;;1.67;1.57;;;-6.10;94.50;;;;;;4965218;28;20430;-86
2024/01/08 10:39:03;;;;;;;1.73;1.63;;;-6.10;94.30;;;;;;4969046;28;20418;-86
2024/01/08 10:41:28;;;;;;;1.50;1.40;;;-6.00;94.00;;;;;;4969756;28;20446;-86
2024/01/08 10:43:54;;;;;;;1.20;1.10;;;-5.90;93.90;;;;;;4969745;28;20431;-87
2024/01/08 10:46:22;;;;;;;1.27;1.17;;;-5.80;93.60;;;;;;4952320;28;20209;-86
2024/01/08 10:48:57;;;;;;;2.67;2.47;;;-5.80;93.70;;;;;;4954030;28;20189;-86
2024/01/08 10:51:23;;;;;;;1.20;1.10;;;-5.70;93.80;;;;;;4969770;28;20453;-87
2024/01/08 10:53:53;;;;;;;2.80;2.60;;;-5.70;93.60;;;;;;4952886;28;20423;-86
2024/01/08 10:56:22;;;;;;;3.83;2.03;;;-5.50;93.60;;;;;;4952599;28;20928;-86
2024/01/08 10:58:55;;;;;;;1.63;1.37;;;-5.50;93.20;;;;;;4970872;28;21023;-86
2024/01/08 11:01:21;;;;;;;2.83;2.00;;;-5.50;93.00;;;;;;4969144;28;20513;-87
2024/01/08 11:03:47;;;;;;;2.20;2.00;;;-5.40;92.70;;;;;;4969435;28;20960;-87
2024/01/08 11:06:13;;;;;;;3.00;2.30;;;-5.30;92.40;;;;;;4953606;28;20513;-86
2024/01/08 11:08:42;;;;;;;1.50;1.40;;;-5.30;92.20;;;;;;4968829;28;20419;-87
2024/01/08 11:11:09;;;;;;;2.73;2.07;;;-5.20;92.80;;;;;;4970154;28;20447;-87
2024/01/08 11:13:36;;;;;;;1.40;1.30;;;-5.10;92.20;;;;;;4970443;28;20422;-87
2024/01/08 11:16:06;;;;;;;1.33;1.23;;;-5.00;92.10;;;;;;4962909;28;20447;-82
2024/01/08 11:18:31;;;;;;;1.73;1.43;;;-5.20;91.00;;;;;;4970642;28;20433;-87
2024/01/08 11:20:59;;;;;;;2.27;2.07;;;-5.10;91.10;;;;;;4968841;28;20593;-86
2024/01/08 11:23:30;;;;;;;1.57;1.47;;;-5.00;91.10;;;;;;4953287;28;20182;-88
2024/01/08 11:25:55;;;;;;;1.33;1.23;;;-4.80;91.30;;;;;;4952505;28;20466;-87
2024/01/08 11:28:21;;;;;;;2.80;1.67;;;-4.70;90.90;;;;;;4953184;28;20430;-87
2024/01/08 11:31:10;;;;;;;1.77;1.67;;;-4.60;90.30;;;;;;4962559;28;20250;-86
2024/01/08 11:34:17;;;;;;;1.63;1.53;;;-4.70;89.70;;;;;;4948662;28;20175;-88
2024/01/08 11:36:47;;;;;;;1.40;1.30;;;-4.60;89.50;;;;;;4944088;28;20771;-86
2024/01/08 11:39:19;;;;;;;1.57;1.47;;;-4.60;89.90;;;;;;4962557;28;20439;-88
2024/01/08 11:41:46;;;;;;;1.70;1.60;;;-4.50;89.90;;;;;;4971230;28;20874;-89
2024/01/08 11:44:14;;;;;;;1.80;1.70;;;-4.40;89.70;;;;;;4961039;28;20449;-88
2024/01/08 11:46:44;;;;;;;1.70;1.60;;;-4.20;89.60;;;;;;4969647;28;20687;-87
2024/01/08 11:49:10;;;;;;;1.60;1.50;;;-4.10;89.60;;;;;;4953455;28;20450;-89
2024/01/08 11:51:40;;;;;;;1.90;1.83;;;-4.10;89.40;;;;;;4954380;28;20446;-89
2024/01/08 11:54:08;;;;;;;1.70;1.60;;;-4.00;89.00;;;;;;4954169;28;20459;-86
2024/01/08 11:56:37;;;;;;;6.10;1.73;;;-3.80;89.20;;;;;;4954589;28;20422;-86
2024/01/08 11:59:02;;;;;;;1.87;1.77;;;-3.80;88.90;;;;;;4970401;28;20427;-88
2024/01/08 12:01:28;;;;;;;2.20;1.73;;;-3.60;88.90;;;;;;4970780;28;20505;-87
2024/01/08 12:03:58;;;;;;;2.87;1.67;;;-3.60;88.50;;;;;;4970127;28;20195;-90
2024/01/08 12:06:25;;;;;;;1.70;1.60;;;-3.50;88.30;;;;;;4962313;28;20698;-87
2024/01/08 12:08:56;;;;;;;5.53;3.33;;;-3.50;87.70;;;;;;4961044;28;20423;-88
2024/01/08 12:11:25;;;;;;;1.43;1.40;;;-3.70;87.40;;;;;;4960890;28;20531;-88
2024/01/08 12:13:54;;;;;;;3.17;1.83;;;-3.70;87.40;;;;;;4972035;28;20474;-87
2024/01/08 12:16:22;;;;;;;4.73;3.00;;;-3.70;87.70;;;;;;4954576;28;20780;-89
2024/01/08 12:18:48;;;;;;;1.30;1.20;;;-3.70;87.70;;;;;;4954035;28;20427;-88
2024/01/08 12:21:14;;;;;;;1.30;1.20;;;-3.70;87.60;;;;;;4954044;28;20453;-87
2024/01/08 12:23:40;;;;;;;1.50;1.40;;;-3.60;87.80;;;;;;4970462;28;20218;-89
2024/01/08 12:26:05;;;;;;;1.93;1.80;;;-3.50;87.90;;;;;;4964543;28;20477;-87
2024/01/08 12:28:33;;;;;;;2.30;2.10;;;-3.50;87.60;;;;;;4969547;28;20198;-87
2024/01/08 12:30:58;;;;;;;2.33;2.13;;;-3.40;87.70;;;;;;4981535;23;20848;-72
2024/01/08 12:33:25;;;;;;;2.43;2.20;;;-3.40;87.50;;;;;;4971450;28;20937;-73
2024/01/08 12:35:54;;;;;;;1.53;1.40;;;-3.30;87.50;;;;;;4971319;28;20187;-70
2024/01/08 12:38:20;;;;;;;1.93;1.83;;;-3.30;86.60;;;;;;4971207;28;20448;-70
2024/01/08 12:40:50;;;;;;;2.60;2.40;;;-3.20;86.50;;;;;;4972708;28;20445;-71
2024/01/08 12:43:16;;;;;;;1.50;1.40;;;-3.20;86.60;;;;;;4971196;28;20432;-70
2024/01/08 12:45:46;;;;;;;2.33;2.13;;;-3.20;86.80;;;;;;4973369;28;20457;-70
2024/01/08 12:48:12;;;;;;;1.70;1.60;;;-3.20;86.60;;;;;;4971649;28;20934;-71
2024/01/08 12:50:37;;;;;;;2.33;2.13;;;-3.20;86.20;;;;;;4972579;28;20441;-70
2024/01/08 12:53:03;;;;;;;1.53;1.43;;;-3.00;86.30;;;;;;4972342;28;20185;-70
2024/01/08 12:55:29;;;;;;;1.33;1.23;;;-2.90;85.80;;;;;;4972593;28;20182;-70
2024/01/08 12:57:57;;;;;;;2.50;2.30;;;-2.80;86.00;;;;;;4972668;28;20265;-70
2024/01/08 13:00:25;;;;;;;1.93;1.87;;;-2.70;85.50;;;;;;4972685;28;20174;-70
2024/01/08 13:02:51;;;;;;;2.67;2.47;;;-2.50;85.40;;;;;;4971263;28;20430;-69
2024/01/08 13:05:17;;;;;;;1.93;1.83;;;-2.60;86.00;;;;;;4974762;28;20456;-68
2024/01/08 13:07:44;;;;;;;2.63;2.43;;;-2.60;85.60;;;;;;4977447;28;20422;-69
2024/01/08 13:10:09;;;;;;;9.20;1.43;;;-2.70;85.30;;;;;;4980479;28;20277;-72
2024/01/08 13:12:36;;;;;;;1.40;1.30;;;-2.50;85.70;;;;;;4972764;28;20856;-72
2024/01/08 13:15:02;;;;;;;1.50;1.40;;;-2.50;85.20;;;;;;4972532;28;20171;-71
2024/01/08 13:17:27;;;;;;;4.30;2.77;;;-2.40;85.10;;;;;;4970999;28;20428;-69
2024/01/08 13:19:53;;;;;;;2.27;2.07;;;-2.50;85.10;;;;;;4971029;28;20270;-71
2024/01/08 13:22:18;;;;;;;1.57;1.43;;;-2.50;85.20;;;;;;4970254;28;20737;-69
2024/01/08 13:24:44;;;;;;;2.80;2.60;;;-2.30;84.90;;;;;;4971054;28;20265;-69
2024/01/08 13:27:13;;;;;;;1.40;1.30;;;-2.10;84.90;;;;;;4978087;28;20225;-69
2024/01/08 13:29:39;;;;;;;1.60;1.50;;;-2.00;84.40;;;;;;4971142;28;20194;-68
2024/01/08 13:32:07;;;;;;;8.53;2.20;;;-2.00;83.80;;;;;;4971143;28;20490;-68
2024/01/08 13:34:33;;;;;;;1.30;1.20;;;-1.80;84.20;;;;;;4986633;28;20885;-69
2024/01/08 13:36:58;;;;;;;1.27;1.17;;;-1.80;84.00;;;;;;4971989;28;20529;-69
2024/01/08 13:39:25;;;;;;;2.33;2.13;;;-1.80;84.00;;;;;;4977692;28;20210;-69
2024/01/08 13:41:51;;;;;;;1.33;1.23;;;-1.90;83.80;;;;;;4969206;28;20207;-69
2024/01/08 13:44:17;;;;;;;1.57;1.47;;;-2.10;83.70;;;;;;4970161;28;20918;-71
2024/01/08 13:46:42;;;;;;;1.77;1.67;;;-2.20;83.80;;;;;;4977329;28;20479;-71
2024/01/08 13:49:08;;;;;;;1.67;1.57;;;-2.30;84.50;;;;;;4972287;28;20179;-71
2024/01/08 13:51:33;;;;;;;1.20;1.10;;;-2.30;84.60;;;;;;4977752;28;20638;-72
2024/01/08 13:53:59;;;;;;;1.20;1.10;;;-2.40;84.40;;;;;;4977585;28;20650;-69
2024/01/08 13:56:24;;;;;;;4.83;2.23;;;-2.40;84.70;;;;;;4972682;28;20186;-72
2024/01/08 13:58:50;;;;;;;2.50;2.30;;;-2.50;84.60;;;;;;4975965;28;20261;-72
2024/01/08 14:01:16;;;;;;;1.67;1.57;;;-2.40;85.00;;;;;;4971161;28;20236;-71
2024/01/08 14:03:42;;;;;;;1.30;1.20;;;-2.40;84.90;;;;;;4971611;28;20183;-72
2024/01/08 14:06:08;;;;;;;1.83;1.73;;;-2.30;85.10;;;;;;4967777;28;20487;-72
2024/01/08 14:08:34;;;;;;;2.37;2.17;;;-2.10;85.10;;;;;;4966576;28;20456;-71
2024/01/08 14:10:59;;;;;;;1.77;1.67;;;-2.20;85.10;;;;;;4982504;28;20202;-72
2024/01/08 14:13:25;;;;;;;1.53;1.43;;;-2.40;84.70;;;;;;4981907;28;20238;-71
2024/01/08 14:15:51;;;;;;;4.00;1.73;;;-2.60;85.00;;;;;;4968869;28;20189;-72
2024/01/08 14:18:16;;;;;;;1.93;1.83;;;-2.80;85.50;;;;;;4961569;28;20500;-71
2024/01/08 14:20:42;;;;;;;1.53;1.43;;;-2.70;86.00;;;;;;4961761;28;20198;-73
2024/01/08 14:23:08;;;;;;;1.60;1.50;;;-2.50;85.90;;;;;;4967553;28;20225;-74
2024/01/08 14:25:34;;;;;;;1.20;1.10;;;-2.50;86.00;;;;;;4968915;28;20252;-73
2024/01/08 14:28:04;;;;;;;1.87;1.77;;;-2.40;85.80;;;;;;4974425;28;20426;-74
2024/01/08 14:30:32;;;;;;;1.30;1.20;;;-2.50;85.90;;;;;;4968483;28;20634;-73
2024/01/08 14:33:17;;;;;;;1.10;1.00;;;-2.50;86.70;;;;;;4969891;28;20458;-74
2024/01/08 14:35:42;;;;;;;1.20;1.10;;;-2.50;86.70;;;;;;4963419;28;20436;-74
2024/01/08 14:38:08;;;;;;;1.50;1.40;;;-2.70;86.70;;;;;;4966541;28;20439;-74
2024/01/08 14:40:36;;;;;;;1.20;1.10;;;-2.90;87.30;;;;;;4968730;28;20297;-73
2024/01/08 14:43:02;;;;;;;1.63;1.53;;;-3.00;87.60;;;;;;4981571;28;20472;-73
2024/01/08 14:45:27;;;;;;;1.57;1.47;;;-3.10;87.90;;;;;;4969250;28;20501;-73
2024/01/08 14:47:53;;;;;;;1.20;1.10;;;-3.30;88.50;;;;;;4980706;28;20187;-73
2024/01/08 14:50:18;;;;;;;1.50;1.40;;;-3.40;89.20;;;;;;4967413;28;20210;-73
2024/01/08 14:52:45;;;;;;;2.23;2.07;;;-3.50;89.80;;;;;;4969521;28;20190;-73
2024/01/08 14:55:10;;;;;;;1.30;1.20;;;-3.60;90.10;;;;;;4969275;28;20230;-73
2024/01/08 14:57:36;;;;;;;4.13;1.87;;;-3.70;90.70;;;;;;4967977;28;20420;-74
2024/01/08 15:00:06;;;;;;;2.60;1.90;;;-3.80;91.00;;;;;;4968015;28;20268;-74
2024/01/08 15:02:31;;;;;;;1.20;1.10;;;-3.90;91.40;;;;;;4968188;28;20277;-74
2024/01/08 15:04:57;;;;;;;2.27;2.00;;;-4.10;91.90;;;;;;4969269;28;20510;-73
2024/01/08 15:07:22;;;;;;;2.80;1.80;;;-4.20;92.50;;;;;;4970237;28;20217;-74
2024/01/08 15:09:49;;;;;;;1.50;1.40;;;-4.30;92.90;;;;;;4972958;28;20631;-74
2024/01/08 15:12:14;;;;;;;1.80;1.67;;;-4.40;93.50;;;;;;4973352;28;20198;-73
2024/01/08 15:14:40;;;;;;;1.20;1.10;;;-4.50;93.90;;;;;;4967893;28;20968;-73
2024/01/08 15:17:06;;;;;;;1.40;1.30;;;-4.50;94.10;;;;;;4965609;28;20193;-74
2024/01/08 15:19:32;;;;;;;2.13;1.97;;;-4.60;94.50;;;;;;4967770;28;20575;-73
2024/01/08 15:21:57;;;;;;;2.43;2.23;;;-4.70;94.80;;;;;;4964643;28;20449;-74
2024/01/08 15:24:23;;;;;;;2.57;2.23;;;-4.70;95.10;;;;;;4969283;28;20767;-73
2024/01/08 15:26:48;;;;;;;1.60;1.50;;;-4.70;95.60;;;;;;4969435;28;20308;-73
2024/01/08 15:29:14;;;;;;;2.13;1.97;;;-4.80;95.90;;;;;;4969373;28;20250;-73
2024/01/08 15:31:39;;;;;;;5.47;2.13;;;-4.80;96.20;;;;;;4981090;28;20245;-73
2024/01/08 15:34:06;;;;;;;2.93;1.80;;;-4.80;96.50;;;;;;4969446;28;20186;-74
2024/01/08 15:36:32;;;;;;;1.23;1.13;;;-4.90;96.80;;;;;;4969525;28;20238;-74
2024/01/08 15:38:57;;;;;;;5.90;3.53;;;-4.90;97.10;;;;;;4976195;28;20871;-73
2024/01/08 15:41:23;;;;;;;2.87;1.63;;;-4.90;97.20;;;;;;4967987;28;20786;-73
2024/01/08 15:43:48;;;;;;;2.37;2.20;;;-5.00;97.30;;;;;;4969426;28;20255;-74
2024/01/08 15:46:15;;;;;;;1.43;1.33;;;-5.00;97.30;;;;;;4979309;28;20309;-74
2024/01/08 15:48:41;;;;;;;1.30;1.20;;;-5.00;97.30;;;;;;4968161;28;20182;-73
2024/01/08 15:51:06;;;;;;;1.43;1.33;;;-5.10;97.30;;;;;;4968088;28;20446;-74
2024/01/08 15:53:32;;;;;;;1.27;1.17;;;-5.10;97.30;;;;;;4968248;28;20197;-74
2024/01/08 15:55:57;;;;;;;1.30;1.20;;;-5.10;97.30;;;;;;4961142;28;20187;-73
2024/01/08 15:58:23;;;;;;;1.47;1.37;;;-5.10;97.30;;;;;;4967785;28;20181;-73
2024/01/08 16:00:48;;;;;;;1.57;1.47;;;-5.20;97.30;;;;;;4968172;28;20214;-74
2024/01/08 16:03:14;;;;;;;1.20;1.10;;;-5.20;97.30;;;;;;4967770;28;20646;-74
2024/01/08 16:05:40;;;;;;;2.90;2.70;;;-5.20;97.30;;;;;;4971374;28;20205;-74
2024/01/08 16:08:09;;;;;;;1.50;1.40;;;-5.30;97.30;;;;;;4971409;28;20195;-74
2024/01/08 16:10:34;;;;;;;2.40;1.47;;;-5.30;97.30;;;;;;4971930;28;20213;-75
2024/01/08 16:13:00;;;;;;;2.90;2.47;;;-5.30;97.30;;;;;;4964400;28;20429;-74
2024/01/08 16:15:26;;;;;;;1.63;1.53;;;-5.30;97.30;;;;;;4971299;28;20434;-74
2024/01/08 16:17:51;;;;;;;9.17;1.40;;;-5.30;97.30;;;;;;4972339;28;20194;-74
2024/01/08 16:20:20;;;;;;;1.20;1.10;;;-5.30;97.30;;;;;;4979361;28;20194;-74
2024/01/08 16:22:50;;;;;;;1.73;1.63;;;-5.30;97.30;;;;;;4972211;28;20190;-74
2024/01/08 16:25:16;;;;;;;1.10;1.00;;;-5.40;97.30;;;;;;4973169;28;20424;-75
2024/01/08 16:27:42;;;;;;;1.10;1.00;;;-5.40;97.30;;;;;;4972131;28;20422;-74
2024/01/08 16:30:08;;;;;;;1.10;1.00;;;-5.40;97.30;;;;;;4971839;28;20430;-74
2024/01/08 16:32:33;;;;;;;1.53;1.43;;;-5.40;97.30;;;;;;4978913;28;20234;-74
2024/01/08 16:35:00;;;;;;;1.03;0.93;;;-5.50;97.30;;;;;;4970649;28;20441;-74
2024/01/08 16:37:26;;;;;;;1.77;1.67;;;-5.50;97.30;;;;;;4970482;28;20731;-75
2024/01/08 16:39:51;;;;;;;1.50;1.40;;;-5.50;97.30;;;;;;4975999;28;20509;-75
2024/01/08 16:42:17;;;;;;;1.97;1.87;;;-5.50;97.30;;;;;;4970941;28;20577;-76
2024/01/08 16:44:42;;;;;;;2.57;2.37;;;-5.50;97.30;;;;;;4971031;28;20212;-75
2024/01/08 16:47:08;;;;;;;9.53;3.10;;;-5.50;97.30;;;;;;4969766;28;20221;-75
2024/01/08 16:49:33;;;;;;;1.20;1.10;;;-5.60;97.30;;;;;;4972817;28;20178;-75
2024/01/08 16:52:00;;;;;;;1.20;1.10;;;-5.60;97.30;;;;;;4978081;28;20259;-75
2024/01/08 16:54:26;;;;;;;1.37;1.27;;;-5.60;97.30;;;;;;4973103;28;20581;-75
2024/01/08 16:56:52;;;;;;;1.47;1.37;;;-5.60;97.30;;;;;;4972716;28;20940;-76
2024/01/08 16:59:18;;;;;;;8.07;2.90;;;-5.60;97.30;;;;;;4972653;28;20429;-75
2024/01/08 17:01:43;;;;;;;2.53;2.33;;;-5.70;97.30;;;;;;4978026;28;20211;-75
2024/01/08 17:04:09;;;;;;;1.73;1.63;;;-5.70;97.30;;;;;;4972574;28;20196;-75
2024/01/08 17:06:34;;;;;;;1.10;1.00;;;-5.70;97.30;;;;;;4976842;28;20228;-75
2024/01/08 17:09:02;;;;;;;1.37;1.27;;;-5.70;97.30;;;;;;4978447;28;20630;-75
2024/01/08 17:11:29;;;;;;;1.87;1.77;;;-5.80;97.30;;;;;;4974732;28;20195;-76
2024/01/08 17:13:54;;;;;;;1.10;1.00;;;-5.80;97.30;;;;;;4976965;28;20429;-76
2024/01/08 17:16:20;;;;;;;1.87;1.77;;;-5.80;97.30;;;;;;4978200;28;20425;-76
2024/01/08 17:18:45;;;;;;;1.30;1.20;;;-5.80;97.30;;;;;;4977689;28;20265;-76
2024/01/08 17:21:11;;;;;;;2.87;1.97;;;-5.80;97.30;;;;;;4972476;28;20636;-76
2024/01/08 17:23:37;;;;;;;1.57;1.47;;;-5.80;97.30;;;;;;4976634;28;20928;-76
2024/01/08 17:26:03;;;;;;;1.20;1.10;;;-5.80;97.30;;;;;;4968369;28;20253;-76
2024/01/08 17:28:28;;;;;;;1.40;1.30;;;-5.80;97.30;;;;;;4972100;28;20419;-76
2024/01/08 17:30:54;;;;;;;1.63;1.53;;;-5.90;97.30;;;;;;4971928;28;20233;-76
2024/01/08 17:33:20;;;;;;;2.20;1.93;;;-5.90;97.30;;;;;;4970063;28;20217;-76
2024/01/08 17:35:46;;;;;;;1.37;1.27;;;-5.90;97.30;;;;;;4970823;28;20233;-76
2024/01/08 17:38:11;;;;;;;2.80;2.60;;;-5.90;97.30;;;;;;4971826;28;20516;-76
2024/01/08 17:40:37;;;;;;;1.30;1.20;;;-5.90;97.30;;;;;;4969860;28;20214;-76
2024/01/08 17:43:03;;;;;;;1.67;1.50;;;-6.00;97.30;;;;;;4971914;28;20309;-76
2024/01/08 17:45:28;;;;;;;1.20;1.10;;;-6.00;97.30;;;;;;4971014;28;20307;-76